sensor_id;sensor_type;location;lat;lon;timestamp;P1;durP1;ratioP1;P2;durP2;ratioP2
77453;SDS011;66538;53.150;18.160;2023-08-12T00:01:53;6.30;;;3.20;;
77453;SDS011;66538;53.150;18.160;2023-08-12T00:04:20;7.30;;;3.40;;
77453;SDS011;66538;53.150;18.160;2023-08-12T00:06:47;5.70;;;3.20;;
77453;SDS011;66538;53.150;18.160;2023-08-12T00:09:14;7.80;;;3.70;;
77453;SDS011;66538;53.150;18.160;2023-08-12T00:11:41;7.50;;;3.80;;
77453;SDS011;66538;53.150;18.160;2023-08-12T00:14:08;7.20;;;3.40;;
77453;SDS011;66538;53.150;18.160;2023-08-12T00:16:35;7.10;;;3.50;;
77453;SDS011;66538;53.150;18.160;2023-08-12T00:19:01;7.40;;;3.30;;
77453;SDS011;66538;53.150;18.160;2023-08-12T00:21:28;6.90;;;3.90;;
77453;SDS011;66538;53.150;18.160;2023-08-12T00:23:55;8.20;;;3.50;;
77453;SDS011;66538;53.150;18.160;2023-08-12T00:26:21;10.00;;;3.90;;
77453;SDS011;66538;53.150;18.160;2023-08-12T00:28:48;7.10;;;3.60;;
77453;SDS011;66538;53.150;18.160;2023-08-12T00:31:16;7.70;;;3.80;;
77453;SDS011;66538;53.150;18.160;2023-08-12T00:33:43;6.40;;;3.60;;
77453;SDS011;66538;53.150;18.160;2023-08-12T00:36:09;5.70;;;3.80;;
77453;SDS011;66538;53.150;18.160;2023-08-12T00:38:36;6.60;;;3.70;;
77453;SDS011;66538;53.150;18.160;2023-08-12T00:41:03;9.40;;;3.80;;
77453;SDS011;66538;53.150;18.160;2023-08-12T00:43:29;6.50;;;3.70;;
77453;SDS011;66538;53.150;18.160;2023-08-12T00:45:56;8.10;;;4.20;;
77453;SDS011;66538;53.150;18.160;2023-08-12T00:48:23;7.70;;;3.70;;
77453;SDS011;66538;53.150;18.160;2023-08-12T00:50:50;7.90;;;3.80;;
77453;SDS011;66538;53.150;18.160;2023-08-12T00:53:18;6.80;;;3.70;;
77453;SDS011;66538;53.150;18.160;2023-08-12T00:55:46;5.90;;;3.60;;
77453;SDS011;66538;53.150;18.160;2023-08-12T00:58:13;7.90;;;3.70;;
77453;SDS011;66538;53.150;18.160;2023-08-12T01:00:41;10.50;;;4.20;;
77453;SDS011;66538;53.150;18.160;2023-08-12T01:03:08;7.40;;;3.80;;
77453;SDS011;66538;53.150;18.160;2023-08-12T01:05:35;6.60;;;3.60;;
77453;SDS011;66538;53.150;18.160;2023-08-12T01:08:02;7.40;;;3.60;;
77453;SDS011;66538;53.150;18.160;2023-08-12T01:10:31;8.10;;;3.60;;
77453;SDS011;66538;53.150;18.160;2023-08-12T01:13:11;5.80;;;3.50;;
77453;SDS011;66538;53.150;18.160;2023-08-12T01:15:46;6.10;;;3.40;;
77453;SDS011;66538;53.150;18.160;2023-08-12T01:18:17;7.10;;;3.80;;
77453;SDS011;66538;53.150;18.160;2023-08-12T01:20:44;7.10;;;3.70;;
77453;SDS011;66538;53.150;18.160;2023-08-12T01:23:16;7.80;;;3.80;;
77453;SDS011;66538;53.150;18.160;2023-08-12T01:25:42;7.60;;;3.90;;
77453;SDS011;66538;53.150;18.160;2023-08-12T01:28:09;6.00;;;3.50;;
77453;SDS011;66538;53.150;18.160;2023-08-12T01:30:43;6.90;;;3.70;;
77453;SDS011;66538;53.150;18.160;2023-08-12T01:33:19;6.20;;;3.50;;
77453;SDS011;66538;53.150;18.160;2023-08-12T01:35:52;7.40;;;3.60;;
77453;SDS011;66538;53.150;18.160;2023-08-12T01:38:27;8.10;;;3.90;;
77453;SDS011;66538;53.150;18.160;2023-08-12T01:40:56;6.60;;;3.30;;
77453;SDS011;66538;53.150;18.160;2023-08-12T01:43:23;8.10;;;3.90;;
77453;SDS011;66538;53.150;18.160;2023-08-12T01:45:50;6.70;;;3.70;;
77453;SDS011;66538;53.150;18.160;2023-08-12T01:48:17;7.50;;;3.80;;
77453;SDS011;66538;53.150;18.160;2023-08-12T01:50:49;7.00;;;3.50;;
77453;SDS011;66538;53.150;18.160;2023-08-12T01:53:15;6.40;;;3.50;;
77453;SDS011;66538;53.150;18.160;2023-08-12T01:55:43;7.10;;;4.30;;
77453;SDS011;66538;53.150;18.160;2023-08-12T01:58:10;7.20;;;3.40;;
77453;SDS011;66538;53.150;18.160;2023-08-12T02:00:37;5.80;;;4.00;;
77453;SDS011;66538;53.150;18.160;2023-08-12T02:03:04;7.90;;;4.30;;
77453;SDS011;66538;53.150;18.160;2023-08-12T02:05:30;7.30;;;4.40;;
77453;SDS011;66538;53.150;18.160;2023-08-12T02:07:57;6.60;;;3.80;;
77453;SDS011;66538;53.150;18.160;2023-08-12T02:10:25;6.40;;;3.70;;
77453;SDS011;66538;53.150;18.160;2023-08-12T02:12:53;7.90;;;4.60;;
77453;SDS011;66538;53.150;18.160;2023-08-12T02:15:20;5.80;;;3.80;;
77453;SDS011;66538;53.150;18.160;2023-08-12T02:17:47;6.20;;;3.80;;
77453;SDS011;66538;53.150;18.160;2023-08-12T02:20:13;7.50;;;3.90;;
77453;SDS011;66538;53.150;18.160;2023-08-12T02:22:40;7.80;;;4.60;;
77453;SDS011;66538;53.150;18.160;2023-08-12T02:25:07;6.20;;;3.90;;
77453;SDS011;66538;53.150;18.160;2023-08-12T02:27:34;6.40;;;4.00;;
77453;SDS011;66538;53.150;18.160;2023-08-12T02:30:00;5.50;;;3.80;;
77453;SDS011;66538;53.150;18.160;2023-08-12T02:32:27;7.10;;;4.00;;
77453;SDS011;66538;53.150;18.160;2023-08-12T02:34:54;6.50;;;4.10;;
77453;SDS011;66538;53.150;18.160;2023-08-12T02:37:20;8.80;;;4.60;;
77453;SDS011;66538;53.150;18.160;2023-08-12T02:39:47;8.10;;;4.30;;
77453;SDS011;66538;53.150;18.160;2023-08-12T02:42:14;7.60;;;4.60;;
77453;SDS011;66538;53.150;18.160;2023-08-12T02:44:40;7.80;;;4.80;;
77453;SDS011;66538;53.150;18.160;2023-08-12T02:47:07;8.50;;;4.90;;
77453;SDS011;66538;53.150;18.160;2023-08-12T02:49:33;9.80;;;4.80;;
77453;SDS011;66538;53.150;18.160;2023-08-12T02:52:00;9.60;;;5.70;;
77453;SDS011;66538;53.150;18.160;2023-08-12T02:54:27;8.80;;;5.00;;
77453;SDS011;66538;53.150;18.160;2023-08-12T02:56:53;7.40;;;4.80;;
77453;SDS011;66538;53.150;18.160;2023-08-12T02:59:20;8.60;;;5.00;;
77453;SDS011;66538;53.150;18.160;2023-08-12T03:01:46;9.20;;;5.10;;
77453;SDS011;66538;53.150;18.160;2023-08-12T03:04:13;9.10;;;4.60;;
77453;SDS011;66538;53.150;18.160;2023-08-12T03:06:39;9.00;;;4.60;;
77453;SDS011;66538;53.150;18.160;2023-08-12T03:09:07;9.50;;;4.60;;
77453;SDS011;66538;53.150;18.160;2023-08-12T03:11:33;8.40;;;4.60;;
77453;SDS011;66538;53.150;18.160;2023-08-12T03:14:00;7.90;;;4.60;;
77453;SDS011;66538;53.150;18.160;2023-08-12T03:16:27;9.30;;;5.20;;
77453;SDS011;66538;53.150;18.160;2023-08-12T03:18:54;8.70;;;5.30;;
77453;SDS011;66538;53.150;18.160;2023-08-12T03:21:20;10.90;;;5.20;;
77453;SDS011;66538;53.150;18.160;2023-08-12T03:23:49;8.80;;;5.20;;
77453;SDS011;66538;53.150;18.160;2023-08-12T03:26:15;9.30;;;4.70;;
77453;SDS011;66538;53.150;18.160;2023-08-12T03:28:42;9.80;;;5.00;;
77453;SDS011;66538;53.150;18.160;2023-08-12T03:31:10;9.90;;;4.60;;
77453;SDS011;66538;53.150;18.160;2023-08-12T03:33:36;9.50;;;4.40;;
77453;SDS011;66538;53.150;18.160;2023-08-12T03:36:04;8.50;;;4.10;;
77453;SDS011;66538;53.150;18.160;2023-08-12T03:38:30;9.40;;;4.40;;
77453;SDS011;66538;53.150;18.160;2023-08-12T03:40:57;8.90;;;4.40;;
77453;SDS011;66538;53.150;18.160;2023-08-12T03:43:24;7.20;;;4.50;;
77453;SDS011;66538;53.150;18.160;2023-08-12T03:45:50;6.40;;;4.20;;
77453;SDS011;66538;53.150;18.160;2023-08-12T03:48:18;6.70;;;4.80;;
77453;SDS011;66538;53.150;18.160;2023-08-12T03:50:46;7.00;;;4.30;;
77453;SDS011;66538;53.150;18.160;2023-08-12T03:53:13;8.20;;;4.20;;
77453;SDS011;66538;53.150;18.160;2023-08-12T03:55:41;7.50;;;4.60;;
77453;SDS011;66538;53.150;18.160;2023-08-12T03:58:08;8.50;;;4.60;;
77453;SDS011;66538;53.150;18.160;2023-08-12T04:00:34;7.10;;;4.80;;
77453;SDS011;66538;53.150;18.160;2023-08-12T04:03:01;6.00;;;4.20;;
77453;SDS011;66538;53.150;18.160;2023-08-12T04:05:28;6.50;;;4.40;;
77453;SDS011;66538;53.150;18.160;2023-08-12T04:07:55;7.00;;;4.50;;
77453;SDS011;66538;53.150;18.160;2023-08-12T04:10:21;10.00;;;4.70;;
77453;SDS011;66538;53.150;18.160;2023-08-12T04:12:48;8.40;;;4.70;;
77453;SDS011;66538;53.150;18.160;2023-08-12T04:15:14;7.60;;;4.50;;
77453;SDS011;66538;53.150;18.160;2023-08-12T04:17:41;7.60;;;4.60;;
77453;SDS011;66538;53.150;18.160;2023-08-12T04:20:09;9.40;;;5.10;;
77453;SDS011;66538;53.150;18.160;2023-08-12T04:22:36;8.30;;;4.40;;
77453;SDS011;66538;53.150;18.160;2023-08-12T04:25:03;9.60;;;5.30;;
77453;SDS011;66538;53.150;18.160;2023-08-12T04:27:30;8.90;;;4.80;;
77453;SDS011;66538;53.150;18.160;2023-08-12T04:29:57;9.00;;;4.60;;
77453;SDS011;66538;53.150;18.160;2023-08-12T04:32:24;9.20;;;4.70;;
77453;SDS011;66538;53.150;18.160;2023-08-12T04:34:51;9.90;;;4.80;;
77453;SDS011;66538;53.150;18.160;2023-08-12T04:37:18;8.10;;;4.30;;
77453;SDS011;66538;53.150;18.160;2023-08-12T04:39:45;9.70;;;4.80;;
77453;SDS011;66538;53.150;18.160;2023-08-12T04:42:12;8.40;;;4.80;;
77453;SDS011;66538;53.150;18.160;2023-08-12T04:44:39;8.10;;;4.50;;
77453;SDS011;66538;53.150;18.160;2023-08-12T04:47:06;8.30;;;4.70;;
77453;SDS011;66538;53.150;18.160;2023-08-12T04:49:33;8.50;;;4.90;;
77453;SDS011;66538;53.150;18.160;2023-08-12T04:51:59;7.40;;;5.20;;
77453;SDS011;66538;53.150;18.160;2023-08-12T04:54:26;8.50;;;5.40;;
77453;SDS011;66538;53.150;18.160;2023-08-12T04:56:53;7.30;;;5.00;;
77453;SDS011;66538;53.150;18.160;2023-08-12T04:59:21;7.60;;;5.20;;
77453;SDS011;66538;53.150;18.160;2023-08-12T05:01:47;9.00;;;5.20;;
77453;SDS011;66538;53.150;18.160;2023-08-12T05:04:14;7.50;;;4.70;;
77453;SDS011;66538;53.150;18.160;2023-08-12T05:06:41;13.40;;;5.00;;
77453;SDS011;66538;53.150;18.160;2023-08-12T05:09:08;11.20;;;5.10;;
77453;SDS011;66538;53.150;18.160;2023-08-12T05:11:35;9.70;;;5.40;;
77453;SDS011;66538;53.150;18.160;2023-08-12T05:14:01;7.70;;;5.20;;
77453;SDS011;66538;53.150;18.160;2023-08-12T05:16:28;8.70;;;5.10;;
77453;SDS011;66538;53.150;18.160;2023-08-12T05:18:57;9.40;;;4.90;;
77453;SDS011;66538;53.150;18.160;2023-08-12T05:21:23;12.70;;;6.80;;
77453;SDS011;66538;53.150;18.160;2023-08-12T05:23:50;11.60;;;5.80;;
77453;SDS011;66538;53.150;18.160;2023-08-12T05:26:17;9.90;;;6.30;;
77453;SDS011;66538;53.150;18.160;2023-08-12T05:28:44;8.90;;;5.70;;
77453;SDS011;66538;53.150;18.160;2023-08-12T05:31:10;9.60;;;5.60;;
77453;SDS011;66538;53.150;18.160;2023-08-12T05:33:37;8.20;;;5.60;;
77453;SDS011;66538;53.150;18.160;2023-08-12T05:36:04;12.90;;;6.10;;
77453;SDS011;66538;53.150;18.160;2023-08-12T05:38:30;8.70;;;5.60;;
77453;SDS011;66538;53.150;18.160;2023-08-12T05:40:57;10.50;;;6.20;;
77453;SDS011;66538;53.150;18.160;2023-08-12T05:43:24;8.80;;;6.30;;
77453;SDS011;66538;53.150;18.160;2023-08-12T05:45:50;10.70;;;6.20;;
77453;SDS011;66538;53.150;18.160;2023-08-12T05:48:17;10.50;;;6.30;;
77453;SDS011;66538;53.150;18.160;2023-08-12T05:50:43;9.00;;;5.50;;
77453;SDS011;66538;53.150;18.160;2023-08-12T05:53:10;8.70;;;5.50;;
77453;SDS011;66538;53.150;18.160;2023-08-12T05:55:36;8.50;;;5.60;;
77453;SDS011;66538;53.150;18.160;2023-08-12T05:58:03;9.10;;;5.70;;
77453;SDS011;66538;53.150;18.160;2023-08-12T06:00:31;12.00;;;6.30;;
77453;SDS011;66538;53.150;18.160;2023-08-12T06:02:57;10.60;;;6.40;;
77453;SDS011;66538;53.150;18.160;2023-08-12T06:05:24;10.50;;;6.00;;
77453;SDS011;66538;53.150;18.160;2023-08-12T06:07:50;11.80;;;6.80;;
77453;SDS011;66538;53.150;18.160;2023-08-12T06:10:17;10.10;;;7.00;;
77453;SDS011;66538;53.150;18.160;2023-08-12T06:12:44;9.20;;;5.60;;
77453;SDS011;66538;53.150;18.160;2023-08-12T06:15:10;11.50;;;6.70;;
77453;SDS011;66538;53.150;18.160;2023-08-12T06:17:37;10.00;;;6.10;;
77453;SDS011;66538;53.150;18.160;2023-08-12T06:20:03;11.00;;;6.40;;
77453;SDS011;66538;53.150;18.160;2023-08-12T06:22:30;11.30;;;5.40;;
77453;SDS011;66538;53.150;18.160;2023-08-12T06:24:57;9.80;;;6.20;;
77453;SDS011;66538;53.150;18.160;2023-08-12T06:27:24;10.00;;;6.00;;
77453;SDS011;66538;53.150;18.160;2023-08-12T06:29:51;9.00;;;5.40;;
77453;SDS011;66538;53.150;18.160;2023-08-12T06:32:17;7.90;;;5.00;;
77453;SDS011;66538;53.150;18.160;2023-08-12T06:34:44;9.70;;;5.50;;
77453;SDS011;66538;53.150;18.160;2023-08-12T06:37:10;9.70;;;5.30;;
77453;SDS011;66538;53.150;18.160;2023-08-12T06:39:37;10.00;;;5.80;;
77453;SDS011;66538;53.150;18.160;2023-08-12T06:42:04;8.80;;;5.20;;
77453;SDS011;66538;53.150;18.160;2023-08-12T06:44:30;7.50;;;4.70;;
77453;SDS011;66538;53.150;18.160;2023-08-12T06:46:57;7.10;;;4.40;;
77453;SDS011;66538;53.150;18.160;2023-08-12T06:49:24;7.10;;;4.30;;
77453;SDS011;66538;53.150;18.160;2023-08-12T06:51:51;6.90;;;4.40;;
77453;SDS011;66538;53.150;18.160;2023-08-12T06:54:18;7.40;;;4.30;;
77453;SDS011;66538;53.150;18.160;2023-08-12T06:56:45;8.90;;;4.90;;
77453;SDS011;66538;53.150;18.160;2023-08-12T06:59:11;8.60;;;4.10;;
77453;SDS011;66538;53.150;18.160;2023-08-12T07:01:38;6.00;;;3.50;;
77453;SDS011;66538;53.150;18.160;2023-08-12T07:04:06;6.00;;;3.10;;
77453;SDS011;66538;53.150;18.160;2023-08-12T07:06:34;6.40;;;3.70;;
77453;SDS011;66538;53.150;18.160;2023-08-12T07:09:01;7.70;;;4.10;;
77453;SDS011;66538;53.150;18.160;2023-08-12T07:13:56;6.20;;;3.50;;
77453;SDS011;66538;53.150;18.160;2023-08-12T07:16:22;5.90;;;3.40;;
77453;SDS011;66538;53.150;18.160;2023-08-12T07:18:50;6.50;;;3.40;;
77453;SDS011;66538;53.150;18.160;2023-08-12T07:21:16;7.70;;;3.40;;
77453;SDS011;66538;53.150;18.160;2023-08-12T07:23:43;8.70;;;3.80;;
77453;SDS011;66538;53.150;18.160;2023-08-12T07:26:11;6.00;;;2.90;;
77453;SDS011;66538;53.150;18.160;2023-08-12T07:28:37;6.60;;;2.90;;
77453;SDS011;66538;53.150;18.160;2023-08-12T07:31:04;7.50;;;3.40;;
77453;SDS011;66538;53.150;18.160;2023-08-12T07:33:31;5.70;;;3.00;;
77453;SDS011;66538;53.150;18.160;2023-08-12T07:35:58;5.10;;;2.90;;
77453;SDS011;66538;53.150;18.160;2023-08-12T07:38:26;5.60;;;2.80;;
77453;SDS011;66538;53.150;18.160;2023-08-12T07:40:53;6.20;;;2.80;;
77453;SDS011;66538;53.150;18.160;2023-08-12T07:43:20;6.70;;;3.30;;
77453;SDS011;66538;53.150;18.160;2023-08-12T07:45:50;7.10;;;3.20;;
77453;SDS011;66538;53.150;18.160;2023-08-12T07:48:22;4.40;;;2.60;;
77453;SDS011;66538;53.150;18.160;2023-08-12T07:50:57;4.90;;;2.70;;
77453;SDS011;66538;53.150;18.160;2023-08-12T07:53:24;7.00;;;3.50;;
77453;SDS011;66538;53.150;18.160;2023-08-12T07:55:52;7.00;;;2.80;;
77453;SDS011;66538;53.150;18.160;2023-08-12T07:58:19;6.20;;;2.70;;
77453;SDS011;66538;53.150;18.160;2023-08-12T08:00:45;7.00;;;2.90;;
77453;SDS011;66538;53.150;18.160;2023-08-12T08:03:14;6.10;;;2.70;;
77453;SDS011;66538;53.150;18.160;2023-08-12T08:05:40;7.10;;;2.70;;
77453;SDS011;66538;53.150;18.160;2023-08-12T08:08:16;5.00;;;2.90;;
77453;SDS011;66538;53.150;18.160;2023-08-12T08:10:44;6.60;;;2.80;;
77453;SDS011;66538;53.150;18.160;2023-08-12T08:13:11;4.30;;;2.30;;
77453;SDS011;66538;53.150;18.160;2023-08-12T08:15:38;5.70;;;2.40;;
77453;SDS011;66538;53.150;18.160;2023-08-12T08:18:05;5.90;;;2.30;;
77453;SDS011;66538;53.150;18.160;2023-08-12T08:20:33;5.50;;;2.20;;
77453;SDS011;66538;53.150;18.160;2023-08-12T08:23:01;5.60;;;2.20;;
77453;SDS011;66538;53.150;18.160;2023-08-12T08:25:31;5.90;;;2.20;;
77453;SDS011;66538;53.150;18.160;2023-08-12T08:27:58;5.40;;;2.40;;
77453;SDS011;66538;53.150;18.160;2023-08-12T08:30:25;5.30;;;1.80;;
77453;SDS011;66538;53.150;18.160;2023-08-12T08:32:52;5.40;;;2.00;;
77453;SDS011;66538;53.150;18.160;2023-08-12T08:35:18;4.30;;;1.80;;
77453;SDS011;66538;53.150;18.160;2023-08-12T08:37:45;4.70;;;1.90;;
77453;SDS011;66538;53.150;18.160;2023-08-12T08:40:12;3.80;;;2.20;;
77453;SDS011;66538;53.150;18.160;2023-08-12T08:42:40;5.40;;;2.00;;
77453;SDS011;66538;53.150;18.160;2023-08-12T08:45:12;4.60;;;2.10;;
77453;SDS011;66538;53.150;18.160;2023-08-12T08:47:40;5.30;;;1.90;;
77453;SDS011;66538;53.150;18.160;2023-08-12T08:50:08;6.10;;;1.90;;
77453;SDS011;66538;53.150;18.160;2023-08-12T08:52:37;5.30;;;2.10;;
77453;SDS011;66538;53.150;18.160;2023-08-12T08:55:04;5.20;;;2.20;;
77453;SDS011;66538;53.150;18.160;2023-08-12T08:57:31;7.10;;;2.00;;
77453;SDS011;66538;53.150;18.160;2023-08-12T09:00:00;4.40;;;1.90;;
77453;SDS011;66538;53.150;18.160;2023-08-12T09:02:27;4.30;;;2.10;;
77453;SDS011;66538;53.150;18.160;2023-08-12T09:04:55;7.40;;;2.60;;
77453;SDS011;66538;53.150;18.160;2023-08-12T09:07:22;4.90;;;2.10;;
77453;SDS011;66538;53.150;18.160;2023-08-12T09:09:50;7.00;;;2.00;;
77453;SDS011;66538;53.150;18.160;2023-08-12T09:12:19;5.50;;;2.00;;
77453;SDS011;66538;53.150;18.160;2023-08-12T09:14:47;7.80;;;2.20;;
77453;SDS011;66538;53.150;18.160;2023-08-12T09:17:15;7.00;;;2.40;;
77453;SDS011;66538;53.150;18.160;2023-08-12T09:19:48;5.10;;;2.20;;
77453;SDS011;66538;53.150;18.160;2023-08-12T09:22:17;5.20;;;2.00;;
77453;SDS011;66538;53.150;18.160;2023-08-12T09:24:44;7.00;;;2.20;;
77453;SDS011;66538;53.150;18.160;2023-08-12T09:27:11;4.90;;;1.90;;
77453;SDS011;66538;53.150;18.160;2023-08-12T09:29:38;4.80;;;2.20;;
77453;SDS011;66538;53.150;18.160;2023-08-12T09:32:05;4.70;;;2.10;;
77453;SDS011;66538;53.150;18.160;2023-08-12T09:37:15;3.70;;;1.70;;
77453;SDS011;66538;53.150;18.160;2023-08-12T09:39:41;4.90;;;1.70;;
77453;SDS011;66538;53.150;18.160;2023-08-12T09:42:09;4.30;;;1.60;;
77453;SDS011;66538;53.150;18.160;2023-08-12T09:44:37;3.90;;;1.60;;
77453;SDS011;66538;53.150;18.160;2023-08-12T09:47:05;5.30;;;1.80;;
77453;SDS011;66538;53.150;18.160;2023-08-12T09:49:32;6.40;;;2.00;;
77453;SDS011;66538;53.150;18.160;2023-08-12T09:51:59;7.40;;;1.80;;
77453;SDS011;66538;53.150;18.160;2023-08-12T09:54:27;4.40;;;1.90;;
77453;SDS011;66538;53.150;18.160;2023-08-12T09:56:57;6.40;;;1.90;;
77453;SDS011;66538;53.150;18.160;2023-08-12T09:59:30;3.30;;;1.50;;
77453;SDS011;66538;53.150;18.160;2023-08-12T10:01:58;4.80;;;1.70;;
77453;SDS011;66538;53.150;18.160;2023-08-12T10:04:33;5.00;;;1.90;;
77453;SDS011;66538;53.150;18.160;2023-08-12T10:07:03;4.80;;;1.90;;
77453;SDS011;66538;53.150;18.160;2023-08-12T10:09:32;4.50;;;1.90;;
77453;SDS011;66538;53.150;18.160;2023-08-12T10:12:00;3.80;;;1.60;;
77453;SDS011;66538;53.150;18.160;2023-08-12T10:14:27;3.50;;;1.60;;
77453;SDS011;66538;53.150;18.160;2023-08-12T10:16:55;4.20;;;1.70;;
77453;SDS011;66538;53.150;18.160;2023-08-12T10:19:23;6.90;;;2.20;;
77453;SDS011;66538;53.150;18.160;2023-08-12T10:21:53;6.10;;;2.20;;
77453;SDS011;66538;53.150;18.160;2023-08-12T10:24:28;6.90;;;1.70;;
77453;SDS011;66538;53.150;18.160;2023-08-12T10:26:56;4.10;;;1.90;;
77453;SDS011;66538;53.150;18.160;2023-08-12T10:29:23;5.00;;;1.80;;
77453;SDS011;66538;53.150;18.160;2023-08-12T10:31:51;4.30;;;1.70;;
77453;SDS011;66538;53.150;18.160;2023-08-12T10:34:21;4.70;;;1.80;;
77453;SDS011;66538;53.150;18.160;2023-08-12T10:36:53;5.10;;;1.80;;
77453;SDS011;66538;53.150;18.160;2023-08-12T10:39:25;7.20;;;1.70;;
77453;SDS011;66538;53.150;18.160;2023-08-12T10:41:54;3.90;;;1.60;;
77453;SDS011;66538;53.150;18.160;2023-08-12T10:44:23;4.30;;;1.70;;
77453;SDS011;66538;53.150;18.160;2023-08-12T10:46:53;4.20;;;1.60;;
77453;SDS011;66538;53.150;18.160;2023-08-12T10:49:21;3.80;;;1.60;;
77453;SDS011;66538;53.150;18.160;2023-08-12T10:51:49;3.90;;;1.60;;
77453;SDS011;66538;53.150;18.160;2023-08-12T11:02:28;4.50;;;1.80;;
77453;SDS011;66538;53.150;18.160;2023-08-12T11:05:00;4.40;;;1.70;;
77453;SDS011;66538;53.150;18.160;2023-08-12T11:10:25;4.00;;;1.50;;
77453;SDS011;66538;53.150;18.160;2023-08-12T11:15:19;4.60;;;1.70;;
77453;SDS011;66538;53.150;18.160;2023-08-12T11:17:56;4.10;;;1.70;;
77453;SDS011;66538;53.150;18.160;2023-08-12T11:20:22;5.30;;;2.10;;
77453;SDS011;66538;53.150;18.160;2023-08-12T11:22:50;5.60;;;2.00;;
77453;SDS011;66538;53.150;18.160;2023-08-12T11:25:18;4.10;;;1.40;;
77453;SDS011;66538;53.150;18.160;2023-08-12T11:27:46;4.80;;;1.50;;
77453;SDS011;66538;53.150;18.160;2023-08-12T11:30:14;5.30;;;1.70;;
77453;SDS011;66538;53.150;18.160;2023-08-12T11:32:43;5.90;;;1.60;;
77453;SDS011;66538;53.150;18.160;2023-08-12T11:35:13;3.50;;;1.60;;
77453;SDS011;66538;53.150;18.160;2023-08-12T11:37:42;3.40;;;1.50;;
77453;SDS011;66538;53.150;18.160;2023-08-12T11:40:12;4.60;;;1.80;;
77453;SDS011;66538;53.150;18.160;2023-08-12T11:42:44;6.20;;;1.70;;
77453;SDS011;66538;53.150;18.160;2023-08-12T11:45:18;4.40;;;1.80;;
77453;SDS011;66538;53.150;18.160;2023-08-12T11:47:47;5.20;;;1.60;;
77453;SDS011;66538;53.150;18.160;2023-08-12T11:50:22;3.50;;;1.50;;
77453;SDS011;66538;53.150;18.160;2023-08-12T11:52:51;5.20;;;1.70;;
77453;SDS011;66538;53.150;18.160;2023-08-12T11:55:19;4.10;;;1.40;;
77453;SDS011;66538;53.150;18.160;2023-08-12T11:57:46;4.80;;;1.50;;
77453;SDS011;66538;53.150;18.160;2023-08-12T12:00:13;4.60;;;1.50;;
77453;SDS011;66538;53.150;18.160;2023-08-12T12:05:27;3.90;;;1.50;;
77453;SDS011;66538;53.150;18.160;2023-08-12T12:07:56;4.70;;;1.60;;
77453;SDS011;66538;53.150;18.160;2023-08-12T12:10:26;4.60;;;1.30;;
77453;SDS011;66538;53.150;18.160;2023-08-12T12:12:54;4.60;;;1.60;;
77453;SDS011;66538;53.150;18.160;2023-08-12T12:15:22;3.70;;;1.50;;
77453;SDS011;66538;53.150;18.160;2023-08-12T12:17:49;5.40;;;2.30;;
77453;SDS011;66538;53.150;18.160;2023-08-12T12:20:17;3.60;;;1.90;;
77453;SDS011;66538;53.150;18.160;2023-08-12T12:22:45;5.40;;;1.80;;
77453;SDS011;66538;53.150;18.160;2023-08-12T12:25:12;3.80;;;1.60;;
77453;SDS011;66538;53.150;18.160;2023-08-12T12:27:41;4.30;;;1.80;;
77453;SDS011;66538;53.150;18.160;2023-08-12T12:30:09;3.90;;;1.60;;
77453;SDS011;66538;53.150;18.160;2023-08-12T12:32:37;3.70;;;1.60;;
77453;SDS011;66538;53.150;18.160;2023-08-12T12:35:05;3.20;;;1.30;;
77453;SDS011;66538;53.150;18.160;2023-08-12T12:37:36;3.80;;;1.50;;
77453;SDS011;66538;53.150;18.160;2023-08-12T12:40:04;4.30;;;1.60;;
77453;SDS011;66538;53.150;18.160;2023-08-12T12:42:32;3.30;;;1.40;;
77453;SDS011;66538;53.150;18.160;2023-08-12T12:45:00;5.10;;;1.80;;
77453;SDS011;66538;53.150;18.160;2023-08-12T12:47:27;4.40;;;1.60;;
77453;SDS011;66538;53.150;18.160;2023-08-12T12:49:55;4.50;;;1.60;;
77453;SDS011;66538;53.150;18.160;2023-08-12T12:52:27;4.10;;;1.40;;
77453;SDS011;66538;53.150;18.160;2023-08-12T12:54:55;6.10;;;1.70;;
77453;SDS011;66538;53.150;18.160;2023-08-12T12:57:37;4.40;;;1.30;;
77453;SDS011;66538;53.150;18.160;2023-08-12T13:00:09;4.80;;;1.60;;
77453;SDS011;66538;53.150;18.160;2023-08-12T13:02:42;3.80;;;1.30;;
77453;SDS011;66538;53.150;18.160;2023-08-12T13:05:12;4.40;;;1.50;;
77453;SDS011;66538;53.150;18.160;2023-08-12T13:07:40;3.50;;;1.40;;
77453;SDS011;66538;53.150;18.160;2023-08-12T13:12:36;4.50;;;1.60;;
77453;SDS011;66538;53.150;18.160;2023-08-12T13:15:03;4.60;;;1.50;;
77453;SDS011;66538;53.150;18.160;2023-08-12T13:19:59;4.10;;;1.50;;
77453;SDS011;66538;53.150;18.160;2023-08-12T13:22:26;3.80;;;1.50;;
77453;SDS011;66538;53.150;18.160;2023-08-12T13:24:58;6.60;;;1.50;;
77453;SDS011;66538;53.150;18.160;2023-08-12T13:27:26;4.00;;;1.60;;
77453;SDS011;66538;53.150;18.160;2023-08-12T13:29:55;3.10;;;1.20;;
77453;SDS011;66538;53.150;18.160;2023-08-12T13:32:26;4.00;;;1.30;;
77453;SDS011;66538;53.150;18.160;2023-08-12T13:35:07;4.50;;;1.50;;
77453;SDS011;66538;53.150;18.160;2023-08-12T13:37:35;3.60;;;1.40;;
77453;SDS011;66538;53.150;18.160;2023-08-12T13:40:03;3.70;;;1.70;;
77453;SDS011;66538;53.150;18.160;2023-08-12T13:42:30;3.80;;;1.40;;
77453;SDS011;66538;53.150;18.160;2023-08-12T13:44:59;4.30;;;1.40;;
77453;SDS011;66538;53.150;18.160;2023-08-12T13:47:26;4.40;;;1.60;;
77453;SDS011;66538;53.150;18.160;2023-08-12T13:50:00;4.30;;;1.20;;
77453;SDS011;66538;53.150;18.160;2023-08-12T13:52:28;3.80;;;1.50;;
77453;SDS011;66538;53.150;18.160;2023-08-12T13:54:56;6.10;;;1.50;;
77453;SDS011;66538;53.150;18.160;2023-08-12T13:57:25;4.80;;;1.40;;
77453;SDS011;66538;53.150;18.160;2023-08-12T13:59:53;3.80;;;1.30;;
77453;SDS011;66538;53.150;18.160;2023-08-12T14:02:20;4.30;;;1.50;;
77453;SDS011;66538;53.150;18.160;2023-08-12T14:04:48;3.70;;;1.40;;
77453;SDS011;66538;53.150;18.160;2023-08-12T14:07:16;5.20;;;1.30;;
77453;SDS011;66538;53.150;18.160;2023-08-12T14:12:13;4.40;;;1.70;;
77453;SDS011;66538;53.150;18.160;2023-08-12T14:14:42;4.10;;;1.50;;
77453;SDS011;66538;53.150;18.160;2023-08-12T14:17:09;4.90;;;1.40;;
77453;SDS011;66538;53.150;18.160;2023-08-12T14:19:43;3.20;;;1.40;;
77453;SDS011;66538;53.150;18.160;2023-08-12T14:22:10;3.50;;;1.50;;
77453;SDS011;66538;53.150;18.160;2023-08-12T14:24:38;2.80;;;1.30;;
77453;SDS011;66538;53.150;18.160;2023-08-12T14:27:05;6.80;;;1.70;;
77453;SDS011;66538;53.150;18.160;2023-08-12T14:29:32;3.80;;;1.50;;
77453;SDS011;66538;53.150;18.160;2023-08-12T14:31:58;4.00;;;1.60;;
77453;SDS011;66538;53.150;18.160;2023-08-12T14:34:25;5.00;;;1.50;;
77453;SDS011;66538;53.150;18.160;2023-08-12T14:39:18;3.40;;;1.30;;
77453;SDS011;66538;53.150;18.160;2023-08-12T14:41:45;2.90;;;1.20;;
77453;SDS011;66538;53.150;18.160;2023-08-12T14:44:11;3.90;;;1.70;;
77453;SDS011;66538;53.150;18.160;2023-08-12T14:46:38;4.10;;;1.70;;
77453;SDS011;66538;53.150;18.160;2023-08-12T14:49:04;5.10;;;1.50;;
77453;SDS011;66538;53.150;18.160;2023-08-12T14:51:31;4.90;;;1.40;;
77453;SDS011;66538;53.150;18.160;2023-08-12T14:53:58;4.30;;;1.30;;
77453;SDS011;66538;53.150;18.160;2023-08-12T14:56:24;5.20;;;1.20;;
77453;SDS011;66538;53.150;18.160;2023-08-12T14:58:51;4.20;;;1.50;;
77453;SDS011;66538;53.150;18.160;2023-08-12T15:01:17;4.20;;;1.70;;
77453;SDS011;66538;53.150;18.160;2023-08-12T15:03:44;5.10;;;1.90;;
77453;SDS011;66538;53.150;18.160;2023-08-12T15:06:10;4.40;;;2.00;;
77453;SDS011;66538;53.150;18.160;2023-08-12T15:08:37;3.20;;;1.50;;